createdAt,value
2022-09-16T00:01:26.849Z,1.60
2022-09-16T00:03:58.400Z,1.70
2022-09-16T00:06:28.322Z,1.90
2022-09-16T00:08:57.575Z,1.80
2022-09-16T00:11:26.171Z,1.50
2022-09-16T00:13:54.600Z,1.80
2022-09-16T00:16:25.081Z,1.73
2022-09-16T00:18:58.140Z,1.63
2022-09-16T00:21:26.786Z,1.90
2022-09-16T00:23:56.174Z,1.90
2022-09-16T00:26:24.885Z,1.60
2022-09-16T00:28:53.163Z,1.55
2022-09-16T00:31:21.474Z,1.70
2022-09-16T00:33:50.088Z,1.65
2022-09-16T00:36:21.053Z,1.40
2022-09-16T00:38:53.384Z,2.03
2022-09-16T00:41:24.293Z,1.50
2022-09-16T00:43:56.653Z,1.60
2022-09-16T00:46:33.850Z,1.58
2022-09-16T00:49:07.391Z,1.70
2022-09-16T00:51:37.944Z,1.58
2022-09-16T00:54:10.187Z,1.55
2022-09-16T00:56:40.989Z,1.70
2022-09-16T00:59:13.358Z,2.03
2022-09-16T01:01:43.227Z,1.40
2022-09-16T01:04:17.456Z,1.60
2022-09-16T01:06:47.326Z,2.08
2022-09-16T01:09:16.678Z,1.70
2022-09-16T01:11:45.138Z,1.70
2022-09-16T01:14:31.540Z,1.70
2022-09-16T01:17:07.907Z,1.80
2022-09-16T01:20:11.604Z,2.05
2022-09-16T01:22:54.278Z,2.03
2022-09-16T01:25:33.870Z,1.90
2022-09-16T01:28:19.341Z,1.70
2022-09-16T01:31:02.139Z,2.08
2022-09-16T01:33:39.814Z,2.25
2022-09-16T01:36:21.020Z,1.85
2022-09-16T01:39:09.198Z,1.70
2022-09-16T01:41:44.636Z,1.90
2022-09-16T01:44:22.822Z,2.00
2022-09-16T01:47:01.377Z,2.20
2022-09-16T01:49:40.730Z,1.73
2022-09-16T01:52:21.230Z,1.88
2022-09-16T01:54:55.316Z,1.90
2022-09-16T01:57:29.321Z,1.98
2022-09-16T02:00:03.401Z,1.88
2022-09-16T02:02:38.261Z,1.67
2022-09-16T02:05:13.171Z,2.20
2022-09-16T02:07:46.376Z,2.10
2022-09-16T02:10:20.001Z,1.90
2022-09-16T02:15:24.299Z,2.30
2022-09-16T02:17:59.208Z,2.15
2022-09-16T02:20:30.854Z,2.83
2022-09-16T02:23:03.724Z,2.80
2022-09-16T02:25:35.929Z,2.30
2022-09-16T02:28:08.748Z,2.97
2022-09-16T02:30:37.719Z,2.83
2022-09-16T02:33:10.226Z,2.60
2022-09-16T02:35:40.602Z,2.20
2022-09-16T02:38:14.522Z,2.22
2022-09-16T02:40:47.716Z,2.60
2022-09-16T02:43:16.382Z,2.58
2022-09-16T02:45:54.260Z,2.38
2022-09-16T02:48:32.383Z,1.95
2022-09-16T02:51:13.667Z,2.15
2022-09-16T02:53:47.560Z,2.00
2022-09-16T02:56:23.538Z,1.92
2022-09-16T02:58:52.230Z,1.90
2022-09-16T03:01:22.892Z,2.10
2022-09-16T03:03:55.466Z,1.80
2022-09-16T03:06:25.576Z,1.83
2022-09-16T03:08:56.920Z,1.95
2022-09-16T03:11:46.745Z,2.00
2022-09-16T03:14:40.745Z,1.80
2022-09-16T03:17:26.962Z,1.77
2022-09-16T03:20:06.745Z,1.88
2022-09-16T03:22:45.746Z,1.90
2022-09-16T03:25:24.092Z,1.70
2022-09-16T03:27:55.632Z,1.77
2022-09-16T03:30:24.110Z,2.00
2022-09-16T03:32:57.660Z,1.75
2022-09-16T03:35:31.912Z,1.90
2022-09-16T03:38:02.282Z,2.30
2022-09-16T03:40:32.483Z,1.67
2022-09-16T03:43:00.693Z,1.80
2022-09-16T03:45:29.139Z,1.70
2022-09-16T03:47:58.138Z,2.00
2022-09-16T03:50:27.608Z,1.88
2022-09-16T03:52:55.816Z,2.22
2022-09-16T03:55:24.057Z,2.00
2022-09-16T03:57:54.436Z,2.10
2022-09-16T04:00:23.524Z,2.00
2022-09-16T04:02:52.027Z,2.33
2022-09-16T04:05:20.208Z,2.30
2022-09-16T04:07:51.746Z,2.50
2022-09-16T04:10:20.353Z,2.17
2022-09-16T04:12:48.563Z,2.65
2022-09-16T04:15:17.018Z,2.13
2022-09-16T04:17:45.277Z,2.65
2022-09-16T04:20:13.396Z,2.40
2022-09-16T04:22:41.593Z,2.40
2022-09-16T04:25:11.752Z,2.42
2022-09-16T04:27:40.334Z,2.58
2022-09-16T04:30:10.137Z,2.13
2022-09-16T04:32:38.443Z,2.17
2022-09-16T04:35:07.462Z,2.28
2022-09-16T04:37:35.725Z,2.40
2022-09-16T04:40:05.193Z,2.22
2022-09-16T04:42:35.123Z,1.80
2022-09-16T04:45:03.477Z,2.08
2022-09-16T04:47:32.032Z,1.90
2022-09-16T04:50:00.173Z,1.80
2022-09-16T04:52:31.180Z,1.70
2022-09-16T04:54:59.780Z,1.80
2022-09-16T04:57:30.891Z,1.80
2022-09-16T05:00:00.519Z,1.75
2022-09-16T05:02:29.723Z,1.70
2022-09-16T05:04:57.831Z,1.60
2022-09-16T05:07:26.125Z,1.80
2022-09-16T05:09:54.289Z,1.80
2022-09-16T05:12:22.612Z,1.60
2022-09-16T05:14:50.782Z,1.50
2022-09-16T05:17:39.804Z,1.60
2022-09-16T05:20:09.190Z,1.90
2022-09-16T05:22:37.331Z,1.42
2022-09-16T05:25:05.910Z,1.60
2022-09-16T05:27:36.027Z,1.40
2022-09-16T05:30:04.153Z,1.67
2022-09-16T05:32:34.178Z,1.70
2022-09-16T05:35:02.681Z,1.40
2022-09-16T05:37:30.786Z,1.65
2022-09-16T05:39:59.068Z,1.40
2022-09-16T05:42:27.831Z,1.77
2022-09-16T05:44:55.986Z,1.85
2022-09-16T05:47:24.102Z,1.85
2022-09-16T05:49:55.086Z,1.60
2022-09-16T05:52:24.230Z,1.85
2022-09-16T05:54:52.371Z,1.30
2022-09-16T05:57:23.292Z,1.35
2022-09-16T05:59:51.480Z,1.30
2022-09-16T06:02:19.663Z,1.35
2022-09-16T06:04:48.308Z,0.93
2022-09-16T06:07:17.893Z,0.90
2022-09-16T06:09:46.136Z,0.75
2022-09-16T06:12:14.498Z,0.98
2022-09-16T06:14:42.745Z,0.88
2022-09-16T06:17:10.856Z,0.88
2022-09-16T06:19:39.351Z,0.75
2022-09-16T06:22:07.437Z,0.70
2022-09-16T06:24:36.927Z,1.05
2022-09-16T06:27:05.741Z,1.00
2022-09-16T06:29:33.849Z,0.75
2022-09-16T06:32:02.054Z,0.95
2022-09-16T06:34:31.215Z,1.20
2022-09-16T06:36:59.332Z,0.77
2022-09-16T06:39:27.635Z,1.08
2022-09-16T06:41:57.417Z,1.10
2022-09-16T06:44:25.595Z,0.95
2022-09-16T06:46:56.343Z,0.60
2022-09-16T06:49:24.628Z,0.80
2022-09-16T06:51:53.139Z,0.50
2022-09-16T06:54:21.332Z,0.65
2022-09-16T06:56:49.841Z,0.98
2022-09-16T06:59:19.300Z,1.40
2022-09-16T07:01:47.470Z,1.20
2022-09-16T07:04:15.692Z,0.90
2022-09-16T07:09:34.415Z,1.02
2022-09-16T07:12:03.858Z,0.90
2022-09-16T07:14:33.592Z,0.90
2022-09-16T07:17:02.647Z,0.70
2022-09-16T07:19:31.118Z,0.80
2022-09-16T07:21:59.361Z,0.70
2022-09-16T07:24:27.607Z,1.05
2022-09-16T07:26:56.183Z,1.23
2022-09-16T07:29:24.343Z,0.80
2022-09-16T07:31:53.878Z,0.80
2022-09-16T07:34:22.483Z,0.70
2022-09-16T07:36:51.000Z,0.85
2022-09-16T07:39:21.200Z,0.73
2022-09-16T07:41:50.072Z,0.93
2022-09-16T07:44:20.237Z,0.85
2022-09-16T07:46:51.180Z,0.80
2022-09-16T07:49:21.354Z,0.90
2022-09-16T07:51:49.715Z,0.75
2022-09-16T07:54:19.991Z,1.02
2022-09-16T07:56:48.608Z,1.20
2022-09-16T07:59:19.698Z,1.00
2022-09-16T08:01:49.829Z,1.00
2022-09-16T08:04:21.090Z,1.10
2022-09-16T08:06:49.294Z,1.00
2022-09-16T08:12:07.991Z,1.33
2022-09-16T08:14:36.782Z,1.40
2022-09-16T08:17:05.356Z,1.60
2022-09-16T08:19:34.934Z,1.40
2022-09-16T08:22:03.364Z,1.60
2022-09-16T08:24:34.207Z,1.42
2022-09-16T08:27:02.305Z,1.60
2022-09-16T08:29:30.509Z,1.83
2022-09-16T08:31:58.815Z,1.30
2022-09-16T08:34:26.981Z,1.40
2022-09-16T08:36:56.803Z,1.40
2022-09-16T08:39:25.230Z,1.60
2022-09-16T08:42:31.153Z,1.10
2022-09-16T08:45:26.297Z,1.10
2022-09-16T08:48:08.210Z,1.48
2022-09-16T08:50:41.206Z,1.65
2022-09-16T08:53:16.574Z,1.30
2022-09-16T08:55:48.405Z,1.02
2022-09-16T08:58:18.886Z,0.90
2022-09-16T09:00:50.231Z,0.98
2022-09-16T09:03:27.159Z,1.17
2022-09-16T09:05:57.035Z,0.90
2022-09-16T09:08:38.860Z,1.17
2022-09-16T09:11:16.053Z,1.10
2022-09-16T09:13:54.463Z,1.05
2022-09-16T09:16:32.423Z,0.82
2022-09-16T09:19:11.264Z,1.02
2022-09-16T09:21:49.419Z,0.82
2022-09-16T09:24:36.555Z,0.80
2022-09-16T09:27:14.526Z,0.90
2022-09-16T09:29:53.681Z,1.05
2022-09-16T09:32:48.155Z,0.82
2022-09-16T09:35:29.624Z,0.70
2022-09-16T09:38:22.242Z,0.70
2022-09-16T09:40:56.970Z,0.80
2022-09-16T09:43:32.706Z,0.80
2022-09-16T09:46:05.573Z,0.85
2022-09-16T09:48:38.251Z,0.70
2022-09-16T09:51:13.437Z,0.83
2022-09-16T09:53:44.980Z,0.80
2022-09-16T09:56:20.436Z,0.85
2022-09-16T09:58:59.863Z,0.75
2022-09-16T10:01:28.097Z,0.60
2022-09-16T10:03:57.918Z,0.70
2022-09-16T10:06:30.597Z,0.70
2022-09-16T10:09:00.179Z,0.70
2022-09-16T10:11:32.915Z,0.57
2022-09-16T10:14:05.773Z,0.67
2022-09-16T10:16:37.615Z,0.60
2022-09-16T10:19:18.253Z,0.73
2022-09-16T10:21:50.002Z,0.35
2022-09-16T10:24:30.469Z,0.70
2022-09-16T10:27:01.290Z,0.82
2022-09-16T10:29:29.650Z,0.80
2022-09-16T10:31:59.392Z,0.75
2022-09-16T10:34:33.901Z,0.70
2022-09-16T10:37:06.010Z,0.75
2022-09-16T10:39:34.866Z,0.70
2022-09-16T10:42:06.736Z,0.70
2022-09-16T10:44:38.211Z,0.80
2022-09-16T10:47:09.385Z,0.70
2022-09-16T10:49:41.629Z,0.82
2022-09-16T10:52:19.251Z,0.80
2022-09-16T10:54:47.648Z,0.90
2022-09-16T10:57:29.904Z,0.68
2022-09-16T11:00:11.727Z,1.48
2022-09-16T11:02:54.678Z,0.90
2022-09-16T11:05:30.559Z,0.83
2022-09-16T11:08:10.394Z,0.82
2022-09-16T11:10:45.334Z,1.05
2022-09-16T11:13:27.384Z,0.80
2022-09-16T11:16:21.307Z,0.75
2022-09-16T11:18:59.416Z,0.43
2022-09-16T11:21:47.505Z,0.50
2022-09-16T11:25:00.250Z,0.50
2022-09-16T11:27:44.290Z,0.70
2022-09-16T11:30:17.165Z,0.60
2022-09-16T11:36:08.413Z,0.50
2022-09-16T11:38:48.044Z,0.57
2022-09-16T11:41:22.539Z,0.65
2022-09-16T11:44:15.938Z,0.60
2022-09-16T11:46:54.072Z,0.60
2022-09-16T11:49:40.674Z,0.75
2022-09-16T11:52:21.531Z,0.60
2022-09-16T11:55:16.478Z,0.70
2022-09-16T11:57:52.231Z,0.55
2022-09-16T12:00:20.882Z,0.90
2022-09-16T12:02:57.622Z,0.70
2022-09-16T12:05:32.181Z,0.60
2022-09-16T12:08:08.015Z,0.60
2022-09-16T12:10:42.862Z,0.80
2022-09-16T12:13:15.550Z,1.00
2022-09-16T12:15:49.207Z,0.90
2022-09-16T12:20:51.891Z,0.80
2022-09-16T12:23:23.724Z,0.93
2022-09-16T12:26:05.851Z,1.30
2022-09-16T12:28:37.820Z,1.23
2022-09-16T12:31:14.796Z,0.93
2022-09-16T12:33:51.924Z,0.90
2022-09-16T12:36:24.744Z,0.80
2022-09-16T12:38:53.411Z,1.40
2022-09-16T12:41:39.111Z,0.85
2022-09-16T12:44:34.402Z,0.82
2022-09-16T12:47:24.968Z,0.65
2022-09-16T12:50:23.630Z,0.70
2022-09-16T12:53:24.169Z,0.70
2022-09-16T12:56:04.005Z,0.90
2022-09-16T12:58:50.908Z,0.80
2022-09-16T13:01:24.440Z,0.77
2022-09-16T13:06:27.676Z,1.00
2022-09-16T13:08:57.113Z,0.73
2022-09-16T13:12:16.474Z,0.93
2022-09-16T13:14:23.836Z,0.60
2022-09-16T13:16:56.856Z,0.80
2022-09-16T13:19:44.501Z,0.73
2022-09-16T13:22:26.105Z,0.70
2022-09-16T13:25:06.865Z,0.60
2022-09-16T13:27:37.555Z,0.65
2022-09-16T13:30:32.372Z,0.70
2022-09-16T13:33:22.006Z,0.80
2022-09-16T13:36:03.436Z,0.63
2022-09-16T13:38:42.012Z,0.88
2022-09-16T13:41:13.402Z,0.68
2022-09-16T13:43:54.123Z,0.85
2022-09-16T13:46:32.323Z,1.48
2022-09-16T13:49:22.267Z,1.15
2022-09-16T13:51:51.910Z,0.75
2022-09-16T13:54:28.421Z,1.35
2022-09-16T13:57:12.914Z,0.95
2022-09-16T14:02:37.739Z,2.28
2022-09-16T14:05:45.172Z,2.10
2022-09-16T14:08:20.906Z,1.20
2022-09-16T14:11:03.357Z,1.05
2022-09-16T14:13:39.532Z,1.48
2022-09-16T14:16:17.002Z,1.20
2022-09-16T14:18:54.387Z,1.15
2022-09-16T14:21:24.507Z,1.20
2022-09-16T14:29:03.944Z,2.00
2022-09-16T14:31:34.388Z,0.70
2022-09-16T14:34:09.065Z,1.35
2022-09-16T14:36:40.616Z,0.70
2022-09-16T14:39:13.911Z,1.00
2022-09-16T14:41:48.199Z,0.63
2022-09-16T14:44:24.123Z,0.68
2022-09-16T14:47:04.724Z,0.85
2022-09-16T14:49:38.791Z,0.70
2022-09-16T14:52:19.267Z,0.80
2022-09-16T14:54:47.721Z,0.70
2022-09-16T14:57:22.895Z,0.60
2022-09-16T14:59:52.625Z,0.70
2022-09-16T15:02:24.905Z,0.65
2022-09-16T15:04:58.056Z,0.80
2022-09-16T15:07:32.612Z,0.70
2022-09-16T15:10:06.412Z,0.70
2022-09-16T15:12:45.951Z,0.95
2022-09-16T15:15:21.012Z,0.70
2022-09-16T15:17:58.444Z,0.70
2022-09-16T15:20:31.115Z,0.73
2022-09-16T15:23:00.612Z,0.47
2022-09-16T15:25:34.230Z,0.32
2022-09-16T15:28:08.027Z,0.45
2022-09-16T15:30:36.361Z,0.40
2022-09-16T15:33:04.563Z,0.60
2022-09-16T15:35:35.687Z,0.60
2022-09-16T15:38:13.802Z,0.73
2022-09-16T15:40:42.833Z,0.90
2022-09-16T15:43:19.045Z,0.63
2022-09-16T15:45:59.618Z,0.70
2022-09-16T15:48:32.592Z,0.88
2022-09-16T15:51:06.330Z,0.50
2022-09-16T15:56:22.954Z,0.52
2022-09-16T15:58:59.538Z,0.60
2022-09-16T16:01:52.533Z,0.70
2022-09-16T16:04:27.793Z,0.88
2022-09-16T16:06:58.116Z,0.88
2022-09-16T16:09:43.818Z,0.60
2022-09-16T16:12:14.683Z,0.73
2022-09-16T16:14:46.586Z,0.50
2022-09-16T16:17:17.291Z,0.68
2022-09-16T16:19:47.600Z,0.90
2022-09-16T16:22:17.586Z,0.70
2022-09-16T16:24:46.362Z,0.88
2022-09-16T16:27:14.486Z,0.60
2022-09-16T16:29:44.174Z,0.85
2022-09-16T16:32:14.021Z,0.63
2022-09-16T16:34:45.423Z,1.25
2022-09-16T16:37:40.331Z,1.25
2022-09-16T16:40:07.335Z,1.02
2022-09-16T16:42:36.033Z,0.68
2022-09-16T16:45:06.468Z,0.77
2022-09-16T16:47:34.906Z,0.70
2022-09-16T16:50:03.123Z,0.70
2022-09-16T16:52:31.561Z,0.82
2022-09-16T16:54:59.630Z,1.15
2022-09-16T16:57:28.148Z,0.90
2022-09-16T16:59:56.497Z,0.65
2022-09-16T17:02:26.162Z,0.95
2022-09-16T17:04:54.454Z,0.68
2022-09-16T17:07:26.519Z,0.77
2022-09-16T17:09:55.769Z,0.83
2022-09-16T17:12:24.160Z,0.70
2022-09-16T17:14:52.284Z,0.60
2022-09-16T17:17:20.641Z,1.00
2022-09-16T17:19:50.256Z,1.02
2022-09-16T17:22:18.386Z,1.10
2022-09-16T17:24:46.733Z,1.40
2022-09-16T17:27:19.779Z,0.90
2022-09-16T17:29:48.095Z,1.10
2022-09-16T17:32:16.475Z,0.60
2022-09-16T17:34:44.886Z,0.93
2022-09-16T17:37:15.609Z,0.90
2022-09-16T17:39:44.031Z,1.00
2022-09-16T17:42:12.182Z,1.27
2022-09-16T17:44:40.462Z,0.85
2022-09-16T17:47:08.727Z,0.80
2022-09-16T17:49:36.846Z,1.45
2022-09-16T17:52:05.075Z,1.00
2022-09-16T17:54:34.735Z,1.00
2022-09-16T17:57:03.085Z,0.93
2022-09-16T17:59:31.291Z,1.02
2022-09-16T18:01:59.452Z,0.85
2022-09-16T18:04:27.858Z,0.90
2022-09-16T18:06:56.351Z,1.08
2022-09-16T18:09:24.836Z,1.00
2022-09-16T18:11:54.466Z,1.10
2022-09-16T18:14:23.612Z,1.10
2022-09-16T18:16:52.238Z,0.90
2022-09-16T18:19:20.717Z,1.15
2022-09-16T18:21:48.903Z,1.23
2022-09-16T18:24:17.802Z,1.08
2022-09-16T18:26:46.236Z,1.42
2022-09-16T18:29:16.084Z,1.15
2022-09-16T18:31:46.634Z,1.10
2022-09-16T18:34:16.482Z,1.10
2022-09-16T18:36:45.020Z,1.08
2022-09-16T18:39:14.913Z,1.38
2022-09-16T18:41:45.213Z,1.35
2022-09-16T18:44:17.135Z,1.23
2022-09-16T18:46:45.250Z,1.33
2022-09-16T18:49:15.120Z,1.70
2022-09-16T18:51:49.828Z,1.00
2022-09-16T18:54:25.127Z,1.13
2022-09-16T18:56:55.784Z,1.85
2022-09-16T18:59:28.539Z,1.73
2022-09-16T19:01:58.844Z,1.63
2022-09-16T19:04:29.387Z,1.38
2022-09-16T19:07:05.788Z,1.30
2022-09-16T19:09:35.919Z,1.40
2022-09-16T19:12:04.599Z,1.55
2022-09-16T19:14:34.135Z,1.13
2022-09-16T19:17:02.860Z,1.17
2022-09-16T19:19:31.304Z,1.45
2022-09-16T19:21:59.484Z,1.33
2022-09-16T19:24:28.214Z,1.40
2022-09-16T19:26:57.001Z,1.60
2022-09-16T19:29:25.254Z,1.85
2022-09-16T19:31:54.918Z,1.65
2022-09-16T19:34:23.637Z,1.95
2022-09-16T19:36:51.931Z,1.90
2022-09-16T19:39:21.442Z,1.52
2022-09-16T19:41:49.698Z,1.67
2022-09-16T19:44:18.910Z,1.30
2022-09-16T19:46:49.618Z,1.58
2022-09-16T19:49:21.308Z,1.60
2022-09-16T19:51:52.627Z,1.60
2022-09-16T19:54:21.146Z,1.40
2022-09-16T19:56:50.874Z,1.60
2022-09-16T19:59:20.258Z,1.60
2022-09-16T20:01:49.174Z,1.83
2022-09-16T20:04:19.963Z,1.70
2022-09-16T20:06:50.120Z,1.95
2022-09-16T20:09:19.851Z,1.50
2022-09-16T20:11:49.396Z,1.80
2022-09-16T20:14:20.648Z,2.00
2022-09-16T20:16:50.012Z,1.55
2022-09-16T20:19:20.286Z,1.85
2022-09-16T20:21:50.343Z,1.73
2022-09-16T20:24:24.475Z,1.90
2022-09-16T20:26:54.328Z,1.75
2022-09-16T20:29:23.071Z,1.75
2022-09-16T20:31:52.724Z,1.73
2022-09-16T20:34:23.969Z,1.60
2022-09-16T20:36:53.560Z,1.40
2022-09-16T20:39:22.268Z,1.10
2022-09-16T20:41:52.899Z,1.45
2022-09-16T20:44:21.284Z,1.75
2022-09-16T20:46:50.153Z,1.58
2022-09-16T20:49:20.728Z,1.70
2022-09-16T20:51:49.080Z,1.38
2022-09-16T20:54:18.882Z,1.25
2022-09-16T20:56:48.919Z,1.35
2022-09-16T20:59:20.117Z,1.30
2022-09-16T21:01:49.623Z,1.40
2022-09-16T21:04:20.616Z,1.10
2022-09-16T21:06:49.228Z,1.40
2022-09-16T21:09:19.659Z,1.40
2022-09-16T21:11:51.451Z,1.70
2022-09-16T21:14:21.868Z,1.55
2022-09-16T21:16:50.670Z,1.30
2022-09-16T21:19:19.100Z,1.00
2022-09-16T21:21:48.882Z,0.93
2022-09-16T21:24:18.894Z,1.17
2022-09-16T21:26:47.506Z,1.10
2022-09-16T21:29:18.904Z,1.10
2022-09-16T21:31:47.297Z,1.15
2022-09-16T21:34:17.077Z,1.15
2022-09-16T21:36:45.660Z,1.15
2022-09-16T21:39:14.541Z,1.08
2022-09-16T21:41:45.025Z,1.45
2022-09-16T21:44:13.836Z,1.15
2022-09-16T21:46:45.314Z,1.17
2022-09-16T21:49:18.253Z,1.10
2022-09-16T21:51:47.032Z,1.40
2022-09-16T21:54:19.975Z,1.52
2022-09-16T21:56:51.661Z,1.63
2022-09-16T21:59:20.717Z,1.50
2022-09-16T22:01:50.009Z,1.27
2022-09-16T22:04:20.749Z,1.60
2022-09-16T22:06:49.997Z,1.67
2022-09-16T22:09:18.898Z,1.60
2022-09-16T22:11:47.184Z,1.55
2022-09-16T22:14:17.157Z,2.05
2022-09-16T22:16:45.814Z,2.28
2022-09-16T22:19:15.987Z,2.33
2022-09-16T22:21:45.593Z,1.80
2022-09-16T22:24:16.362Z,1.90
2022-09-16T22:26:44.719Z,1.58
2022-09-16T22:29:13.901Z,1.70
2022-09-16T22:31:43.867Z,1.55
2022-09-16T22:34:12.040Z,1.90
2022-09-16T22:36:40.850Z,1.58
2022-09-16T22:39:13.546Z,1.70
2022-09-16T22:41:42.090Z,1.13
2022-09-16T22:44:10.322Z,1.45
2022-09-16T22:46:41.937Z,1.42
2022-09-16T22:49:12.490Z,0.98
2022-09-16T22:51:40.843Z,1.25
2022-09-16T22:54:10.198Z,1.17
2022-09-16T22:56:38.375Z,1.35
2022-09-16T22:59:08.353Z,0.90
2022-09-16T23:01:39.751Z,0.98
2022-09-16T23:04:09.496Z,1.02
2022-09-16T23:06:40.074Z,1.00
2022-09-16T23:09:10.175Z,1.05
2022-09-16T23:11:38.314Z,0.88
2022-09-16T23:14:08.743Z,1.05
2022-09-16T23:16:38.516Z,1.25
2022-09-16T23:19:09.040Z,0.90
2022-09-16T23:21:39.459Z,1.00
2022-09-16T23:24:10.023Z,1.20
2022-09-16T23:26:39.616Z,0.70
2022-09-16T23:29:10.510Z,0.90
2022-09-16T23:31:40.851Z,0.95
2022-09-16T23:34:09.306Z,0.80
2022-09-16T23:36:39.474Z,0.90
2022-09-16T23:39:08.922Z,1.17
2022-09-16T23:41:38.471Z,0.88
2022-09-16T23:44:07.391Z,0.98
2022-09-16T23:46:35.848Z,1.00
2022-09-16T23:49:04.249Z,1.10
2022-09-16T23:51:33.039Z,0.90
2022-09-16T23:54:02.726Z,1.77
2022-09-16T23:56:32.137Z,1.13
2022-09-16T23:59:01.901Z,1.27
